sensor_id;sensor_type;location;lat;lon;timestamp;P1;durP1;ratioP1;P2;durP2;ratioP2
18544;SDS011;9402;51.460;7.276;2023-07-13T00:00:40;5.10;;;2.13;;
18544;SDS011;9402;51.460;7.276;2023-07-13T00:02:42;9.10;;;1.67;;
18544;SDS011;9402;51.460;7.276;2023-07-13T00:04:44;7.53;;;1.80;;
18544;SDS011;9402;51.460;7.276;2023-07-13T00:06:45;5.43;;;1.80;;
18544;SDS011;9402;51.460;7.276;2023-07-13T00:08:47;6.70;;;2.00;;
18544;SDS011;9402;51.460;7.276;2023-07-13T00:10:51;9.50;;;2.40;;
18544;SDS011;9402;51.460;7.276;2023-07-13T00:12:54;6.60;;;1.93;;
18544;SDS011;9402;51.460;7.276;2023-07-13T00:14:58;6.50;;;1.83;;
18544;SDS011;9402;51.460;7.276;2023-07-13T00:17:01;5.13;;;1.80;;
18544;SDS011;9402;51.460;7.276;2023-07-13T00:19:03;5.83;;;1.50;;
18544;SDS011;9402;51.460;7.276;2023-07-13T00:21:05;5.93;;;1.93;;
18544;SDS011;9402;51.460;7.276;2023-07-13T00:23:05;3.77;;;1.50;;
18544;SDS011;9402;51.460;7.276;2023-07-13T00:25:07;5.57;;;1.80;;
18544;SDS011;9402;51.460;7.276;2023-07-13T00:27:11;6.13;;;1.90;;
18544;SDS011;9402;51.460;7.276;2023-07-13T00:29:12;6.23;;;1.60;;
18544;SDS011;9402;51.460;7.276;2023-07-13T00:31:15;3.67;;;1.80;;
18544;SDS011;9402;51.460;7.276;2023-07-13T00:33:16;4.23;;;1.50;;
18544;SDS011;9402;51.460;7.276;2023-07-13T00:35:18;14.00;;;2.00;;
18544;SDS011;9402;51.460;7.276;2023-07-13T00:37:20;7.50;;;1.83;;
18544;SDS011;9402;51.460;7.276;2023-07-13T00:39:22;8.67;;;2.17;;
18544;SDS011;9402;51.460;7.276;2023-07-13T00:41:23;11.20;;;2.10;;
18544;SDS011;9402;51.460;7.276;2023-07-13T00:43:26;4.20;;;2.10;;
18544;SDS011;9402;51.460;7.276;2023-07-13T00:48:10;6.00;;;1.80;;
18544;SDS011;9402;51.460;7.276;2023-07-13T00:50:12;8.10;;;1.57;;
18544;SDS011;9402;51.460;7.276;2023-07-13T00:52:16;6.57;;;1.90;;
18544;SDS011;9402;51.460;7.276;2023-07-13T00:54:18;7.50;;;1.87;;
18544;SDS011;9402;51.460;7.276;2023-07-13T00:56:27;6.23;;;1.60;;
18544;SDS011;9402;51.460;7.276;2023-07-13T00:58:29;5.93;;;1.70;;
18544;SDS011;9402;51.460;7.276;2023-07-13T01:00:31;2.43;;;1.70;;
18544;SDS011;9402;51.460;7.276;2023-07-13T01:02:34;5.57;;;2.40;;
18544;SDS011;9402;51.460;7.276;2023-07-13T01:04:38;13.00;;;2.13;;
18544;SDS011;9402;51.460;7.276;2023-07-13T01:06:40;3.53;;;1.57;;
18544;SDS011;9402;51.460;7.276;2023-07-13T01:08:44;7.50;;;1.97;;
18544;SDS011;9402;51.460;7.276;2023-07-13T01:10:50;6.63;;;1.57;;
18544;SDS011;9402;51.460;7.276;2023-07-13T01:12:52;7.17;;;1.60;;
18544;SDS011;9402;51.460;7.276;2023-07-13T01:14:56;5.10;;;1.77;;
18544;SDS011;9402;51.460;7.276;2023-07-13T01:17:00;8.37;;;2.37;;
18544;SDS011;9402;51.460;7.276;2023-07-13T01:19:03;7.47;;;1.57;;
18544;SDS011;9402;51.460;7.276;2023-07-13T01:21:09;4.77;;;1.50;;
18544;SDS011;9402;51.460;7.276;2023-07-13T01:23:11;8.63;;;1.40;;
18544;SDS011;9402;51.460;7.276;2023-07-13T01:25:13;5.37;;;1.23;;
18544;SDS011;9402;51.460;7.276;2023-07-13T01:27:16;4.40;;;2.20;;
18544;SDS011;9402;51.460;7.276;2023-07-13T01:29:18;8.00;;;1.77;;
18544;SDS011;9402;51.460;7.276;2023-07-13T01:31:20;7.20;;;1.97;;
18544;SDS011;9402;51.460;7.276;2023-07-13T01:33:22;11.00;;;1.53;;
18544;SDS011;9402;51.460;7.276;2023-07-13T01:35:23;4.17;;;1.63;;
18544;SDS011;9402;51.460;7.276;2023-07-13T01:37:28;4.27;;;1.53;;
18544;SDS011;9402;51.460;7.276;2023-07-13T01:39:33;4.70;;;1.37;;
18544;SDS011;9402;51.460;7.276;2023-07-13T01:41:34;10.07;;;1.73;;
18544;SDS011;9402;51.460;7.276;2023-07-13T01:43:35;6.50;;;1.63;;
18544;SDS011;9402;51.460;7.276;2023-07-13T01:45:36;2.43;;;1.40;;
18544;SDS011;9402;51.460;7.276;2023-07-13T01:47:38;4.30;;;1.57;;
18544;SDS011;9402;51.460;7.276;2023-07-13T01:49:40;7.03;;;1.40;;
18544;SDS011;9402;51.460;7.276;2023-07-13T01:51:41;7.17;;;1.83;;
18544;SDS011;9402;51.460;7.276;2023-07-13T01:53:44;8.53;;;1.80;;
18544;SDS011;9402;51.460;7.276;2023-07-13T01:55:46;5.97;;;1.80;;
18544;SDS011;9402;51.460;7.276;2023-07-13T01:57:47;8.23;;;1.80;;
18544;SDS011;9402;51.460;7.276;2023-07-13T01:59:49;6.03;;;1.50;;
18544;SDS011;9402;51.460;7.276;2023-07-13T02:01:51;4.67;;;1.60;;
18544;SDS011;9402;51.460;7.276;2023-07-13T02:03:52;6.23;;;1.70;;
18544;SDS011;9402;51.460;7.276;2023-07-13T02:05:54;14.43;;;2.07;;
18544;SDS011;9402;51.460;7.276;2023-07-13T02:07:55;5.40;;;1.40;;
18544;SDS011;9402;51.460;7.276;2023-07-13T02:09:59;6.40;;;1.43;;
18544;SDS011;9402;51.460;7.276;2023-07-13T02:12:00;7.90;;;2.17;;
18544;SDS011;9402;51.460;7.276;2023-07-13T02:14:03;2.87;;;1.60;;
18544;SDS011;9402;51.460;7.276;2023-07-13T02:16:05;7.60;;;1.67;;
18544;SDS011;9402;51.460;7.276;2023-07-13T02:18:06;6.83;;;1.60;;
18544;SDS011;9402;51.460;7.276;2023-07-13T02:20:08;12.93;;;1.60;;
18544;SDS011;9402;51.460;7.276;2023-07-13T02:22:10;5.60;;;1.40;;
18544;SDS011;9402;51.460;7.276;2023-07-13T02:24:11;6.67;;;2.00;;
18544;SDS011;9402;51.460;7.276;2023-07-13T02:26:18;8.40;;;1.60;;
18544;SDS011;9402;51.460;7.276;2023-07-13T02:28:20;11.83;;;1.67;;
18544;SDS011;9402;51.460;7.276;2023-07-13T02:30:21;8.00;;;1.63;;
18544;SDS011;9402;51.460;7.276;2023-07-13T02:32:24;11.03;;;1.83;;
18544;SDS011;9402;51.460;7.276;2023-07-13T02:34:26;5.93;;;1.90;;
18544;SDS011;9402;51.460;7.276;2023-07-13T02:36:28;9.27;;;1.33;;
18544;SDS011;9402;51.460;7.276;2023-07-13T02:38:29;3.53;;;1.70;;
18544;SDS011;9402;51.460;7.276;2023-07-13T02:40:33;12.37;;;2.30;;
18544;SDS011;9402;51.460;7.276;2023-07-13T02:42:36;9.50;;;2.20;;
18544;SDS011;9402;51.460;7.276;2023-07-13T02:44:38;7.37;;;1.73;;
18544;SDS011;9402;51.460;7.276;2023-07-13T02:46:40;9.10;;;1.87;;
18544;SDS011;9402;51.460;7.276;2023-07-13T02:48:41;11.30;;;2.07;;
18544;SDS011;9402;51.460;7.276;2023-07-13T02:50:43;3.43;;;1.67;;
18544;SDS011;9402;51.460;7.276;2023-07-13T02:52:45;7.33;;;1.80;;
18544;SDS011;9402;51.460;7.276;2023-07-13T02:54:47;6.30;;;2.00;;
18544;SDS011;9402;51.460;7.276;2023-07-13T02:56:48;6.00;;;1.77;;
18544;SDS011;9402;51.460;7.276;2023-07-13T02:58:51;12.60;;;1.60;;
18544;SDS011;9402;51.460;7.276;2023-07-13T03:00:55;11.63;;;2.03;;
18544;SDS011;9402;51.460;7.276;2023-07-13T03:02:57;4.87;;;1.87;;
18544;SDS011;9402;51.460;7.276;2023-07-13T03:05:00;5.23;;;2.00;;
18544;SDS011;9402;51.460;7.276;2023-07-13T03:07:02;2.37;;;1.60;;
18544;SDS011;9402;51.460;7.276;2023-07-13T03:09:04;6.27;;;1.80;;
18544;SDS011;9402;51.460;7.276;2023-07-13T03:11:05;7.33;;;1.87;;
18544;SDS011;9402;51.460;7.276;2023-07-13T03:13:08;7.40;;;2.03;;
18544;SDS011;9402;51.460;7.276;2023-07-13T03:15:11;5.33;;;1.77;;
18544;SDS011;9402;51.460;7.276;2023-07-13T03:17:12;5.23;;;1.57;;
18544;SDS011;9402;51.460;7.276;2023-07-13T03:19:14;7.10;;;1.53;;
18544;SDS011;9402;51.460;7.276;2023-07-13T03:21:16;4.43;;;2.03;;
18544;SDS011;9402;51.460;7.276;2023-07-13T03:23:17;6.30;;;1.53;;
18544;SDS011;9402;51.460;7.276;2023-07-13T03:25:19;5.90;;;1.73;;
18544;SDS011;9402;51.460;7.276;2023-07-13T03:27:21;7.63;;;1.77;;
18544;SDS011;9402;51.460;7.276;2023-07-13T03:29:22;13.47;;;1.50;;
18544;SDS011;9402;51.460;7.276;2023-07-13T03:31:26;5.90;;;2.03;;
18544;SDS011;9402;51.460;7.276;2023-07-13T03:33:29;7.67;;;1.60;;
18544;SDS011;9402;51.460;7.276;2023-07-13T03:35:31;10.27;;;2.03;;
18544;SDS011;9402;51.460;7.276;2023-07-13T03:37:33;5.10;;;1.60;;
18544;SDS011;9402;51.460;7.276;2023-07-13T03:39:35;5.87;;;2.00;;
18544;SDS011;9402;51.460;7.276;2023-07-13T03:41:36;7.50;;;1.77;;
18544;SDS011;9402;51.460;7.276;2023-07-13T03:43:37;8.93;;;1.83;;
18544;SDS011;9402;51.460;7.276;2023-07-13T03:45:39;11.63;;;2.13;;
18544;SDS011;9402;51.460;7.276;2023-07-13T03:47:42;5.23;;;1.90;;
18544;SDS011;9402;51.460;7.276;2023-07-13T03:49:43;6.10;;;1.80;;
18544;SDS011;9402;51.460;7.276;2023-07-13T03:51:46;6.73;;;2.20;;
18544;SDS011;9402;51.460;7.276;2023-07-13T03:53:47;9.10;;;1.70;;
18544;SDS011;9402;51.460;7.276;2023-07-13T03:55:49;9.43;;;1.93;;
18544;SDS011;9402;51.460;7.276;2023-07-13T03:57:54;8.67;;;2.40;;
18544;SDS011;9402;51.460;7.276;2023-07-13T03:59:59;10.53;;;2.17;;
18544;SDS011;9402;51.460;7.276;2023-07-13T04:02:01;7.80;;;2.00;;
18544;SDS011;9402;51.460;7.276;2023-07-13T04:04:06;7.63;;;2.10;;
18544;SDS011;9402;51.460;7.276;2023-07-13T04:06:08;10.10;;;2.00;;
18544;SDS011;9402;51.460;7.276;2023-07-13T04:08:21;3.20;;;1.87;;
18544;SDS011;9402;51.460;7.276;2023-07-13T04:10:21;7.03;;;1.83;;
18544;SDS011;9402;51.460;7.276;2023-07-13T04:12:23;6.17;;;1.80;;
18544;SDS011;9402;51.460;7.276;2023-07-13T04:14:24;4.63;;;1.63;;
18544;SDS011;9402;51.460;7.276;2023-07-13T04:16:26;15.17;;;2.13;;
18544;SDS011;9402;51.460;7.276;2023-07-13T04:18:26;9.30;;;2.53;;
18544;SDS011;9402;51.460;7.276;2023-07-13T04:20:29;7.33;;;1.80;;
18544;SDS011;9402;51.460;7.276;2023-07-13T04:22:32;7.17;;;1.67;;
18544;SDS011;9402;51.460;7.276;2023-07-13T04:24:34;9.53;;;2.00;;
18544;SDS011;9402;51.460;7.276;2023-07-13T04:26:35;4.17;;;1.40;;
18544;SDS011;9402;51.460;7.276;2023-07-13T04:28:38;17.20;;;2.80;;
18544;SDS011;9402;51.460;7.276;2023-07-13T04:30:39;10.53;;;2.00;;
18544;SDS011;9402;51.460;7.276;2023-07-13T04:32:40;9.37;;;2.33;;
18544;SDS011;9402;51.460;7.276;2023-07-13T04:34:42;11.80;;;2.17;;
18544;SDS011;9402;51.460;7.276;2023-07-13T04:36:45;5.57;;;1.70;;
18544;SDS011;9402;51.460;7.276;2023-07-13T04:38:46;8.10;;;1.80;;
18544;SDS011;9402;51.460;7.276;2023-07-13T04:40:47;3.87;;;1.83;;
18544;SDS011;9402;51.460;7.276;2023-07-13T04:42:49;4.87;;;1.67;;
18544;SDS011;9402;51.460;7.276;2023-07-13T04:44:50;4.37;;;1.67;;
18544;SDS011;9402;51.460;7.276;2023-07-13T04:46:52;5.80;;;1.97;;
18544;SDS011;9402;51.460;7.276;2023-07-13T04:48:54;7.30;;;2.13;;
18544;SDS011;9402;51.460;7.276;2023-07-13T04:50:57;7.70;;;2.17;;
18544;SDS011;9402;51.460;7.276;2023-07-13T04:53:00;6.80;;;2.20;;
18544;SDS011;9402;51.460;7.276;2023-07-13T04:55:03;8.50;;;3.40;;
18544;SDS011;9402;51.460;7.276;2023-07-13T04:57:05;4.43;;;1.80;;
18544;SDS011;9402;51.460;7.276;2023-07-13T04:59:07;8.60;;;2.17;;
18544;SDS011;9402;51.460;7.276;2023-07-13T05:01:09;9.73;;;2.40;;
18544;SDS011;9402;51.460;7.276;2023-07-13T05:03:10;9.50;;;1.90;;
18544;SDS011;9402;51.460;7.276;2023-07-13T05:05:12;10.70;;;2.23;;
18544;SDS011;9402;51.460;7.276;2023-07-13T05:07:14;8.23;;;2.17;;
18544;SDS011;9402;51.460;7.276;2023-07-13T05:09:17;9.40;;;2.10;;
18544;SDS011;9402;51.460;7.276;2023-07-13T05:11:18;7.83;;;1.93;;
18544;SDS011;9402;51.460;7.276;2023-07-13T05:13:20;5.03;;;2.40;;
18544;SDS011;9402;51.460;7.276;2023-07-13T05:15:23;5.23;;;1.93;;
18544;SDS011;9402;51.460;7.276;2023-07-13T05:17:25;5.83;;;1.63;;
18544;SDS011;9402;51.460;7.276;2023-07-13T05:19:27;6.30;;;1.67;;
18544;SDS011;9402;51.460;7.276;2023-07-13T05:21:28;14.60;;;2.37;;
18544;SDS011;9402;51.460;7.276;2023-07-13T05:23:30;5.90;;;2.20;;
18544;SDS011;9402;51.460;7.276;2023-07-13T05:25:34;4.37;;;1.57;;
18544;SDS011;9402;51.460;7.276;2023-07-13T05:27:36;10.77;;;2.20;;
18544;SDS011;9402;51.460;7.276;2023-07-13T05:29:38;9.07;;;2.03;;
18544;SDS011;9402;51.460;7.276;2023-07-13T05:31:39;9.63;;;1.80;;
18544;SDS011;9402;51.460;7.276;2023-07-13T05:33:41;5.10;;;1.80;;
18544;SDS011;9402;51.460;7.276;2023-07-13T05:35:42;8.40;;;2.00;;
18544;SDS011;9402;51.460;7.276;2023-07-13T05:37:44;5.97;;;2.40;;
18544;SDS011;9402;51.460;7.276;2023-07-13T05:39:45;7.07;;;1.90;;
18544;SDS011;9402;51.460;7.276;2023-07-13T05:41:49;10.07;;;2.27;;
18544;SDS011;9402;51.460;7.276;2023-07-13T05:43:50;7.83;;;1.90;;
18544;SDS011;9402;51.460;7.276;2023-07-13T05:45:52;5.57;;;1.93;;
18544;SDS011;9402;51.460;7.276;2023-07-13T05:47:55;12.73;;;2.00;;
18544;SDS011;9402;51.460;7.276;2023-07-13T05:49:57;8.30;;;2.33;;
18544;SDS011;9402;51.460;7.276;2023-07-13T05:51:58;6.43;;;2.40;;
18544;SDS011;9402;51.460;7.276;2023-07-13T05:54:00;7.90;;;2.10;;
18544;SDS011;9402;51.460;7.276;2023-07-13T05:56:01;6.60;;;2.50;;
18544;SDS011;9402;51.460;7.276;2023-07-13T05:58:04;10.20;;;2.40;;
18544;SDS011;9402;51.460;7.276;2023-07-13T06:00:06;7.50;;;2.67;;
18544;SDS011;9402;51.460;7.276;2023-07-13T06:02:09;7.00;;;2.03;;
18544;SDS011;9402;51.460;7.276;2023-07-13T06:04:11;15.30;;;2.50;;
18544;SDS011;9402;51.460;7.276;2023-07-13T06:06:12;17.73;;;3.43;;
18544;SDS011;9402;51.460;7.276;2023-07-13T06:08:13;7.17;;;2.80;;
18544;SDS011;9402;51.460;7.276;2023-07-13T06:10:15;17.00;;;3.43;;
18544;SDS011;9402;51.460;7.276;2023-07-13T06:12:16;17.80;;;4.10;;
18544;SDS011;9402;51.460;7.276;2023-07-13T06:14:19;10.07;;;3.03;;
18544;SDS011;9402;51.460;7.276;2023-07-13T06:16:21;12.00;;;2.50;;
18544;SDS011;9402;51.460;7.276;2023-07-13T06:18:23;14.60;;;3.50;;
18544;SDS011;9402;51.460;7.276;2023-07-13T06:20:25;9.13;;;2.73;;
18544;SDS011;9402;51.460;7.276;2023-07-13T06:22:27;15.23;;;3.50;;
18544;SDS011;9402;51.460;7.276;2023-07-13T06:24:28;12.97;;;4.13;;
18544;SDS011;9402;51.460;7.276;2023-07-13T06:26:30;9.03;;;3.50;;
18544;SDS011;9402;51.460;7.276;2023-07-13T06:28:32;9.40;;;2.90;;
18544;SDS011;9402;51.460;7.276;2023-07-13T06:30:34;13.77;;;3.00;;
18544;SDS011;9402;51.460;7.276;2023-07-13T06:32:36;14.30;;;3.30;;
18544;SDS011;9402;51.460;7.276;2023-07-13T06:34:38;11.80;;;3.20;;
18544;SDS011;9402;51.460;7.276;2023-07-13T06:36:39;10.73;;;3.30;;
18544;SDS011;9402;51.460;7.276;2023-07-13T06:38:41;9.27;;;3.13;;
18544;SDS011;9402;51.460;7.276;2023-07-13T06:40:43;12.70;;;2.90;;
18544;SDS011;9402;51.460;7.276;2023-07-13T06:42:43;13.73;;;2.77;;
18544;SDS011;9402;51.460;7.276;2023-07-13T06:44:45;10.00;;;3.23;;
18544;SDS011;9402;51.460;7.276;2023-07-13T06:46:48;12.33;;;2.60;;
18544;SDS011;9402;51.460;7.276;2023-07-13T06:48:50;13.17;;;3.13;;
18544;SDS011;9402;51.460;7.276;2023-07-13T06:50:52;24.23;;;4.10;;
18544;SDS011;9402;51.460;7.276;2023-07-13T06:52:53;15.93;;;4.40;;
18544;SDS011;9402;51.460;7.276;2023-07-13T06:54:55;14.33;;;3.40;;
18544;SDS011;9402;51.460;7.276;2023-07-13T06:56:56;12.07;;;3.83;;
18544;SDS011;9402;51.460;7.276;2023-07-13T06:58:58;9.73;;;3.10;;
18544;SDS011;9402;51.460;7.276;2023-07-13T07:00:59;13.23;;;3.70;;
18544;SDS011;9402;51.460;7.276;2023-07-13T07:03:02;12.33;;;3.20;;
18544;SDS011;9402;51.460;7.276;2023-07-13T07:05:03;15.87;;;4.70;;
18544;SDS011;9402;51.460;7.276;2023-07-13T07:07:05;20.90;;;3.63;;
18544;SDS011;9402;51.460;7.276;2023-07-13T07:09:07;12.03;;;3.03;;
18544;SDS011;9402;51.460;7.276;2023-07-13T07:11:10;8.27;;;3.00;;
18544;SDS011;9402;51.460;7.276;2023-07-13T07:13:13;7.10;;;3.20;;
18544;SDS011;9402;51.460;7.276;2023-07-13T07:15:15;10.13;;;3.00;;
18544;SDS011;9402;51.460;7.276;2023-07-13T07:17:17;10.97;;;3.43;;
18544;SDS011;9402;51.460;7.276;2023-07-13T07:19:20;12.20;;;3.70;;
18544;SDS011;9402;51.460;7.276;2023-07-13T07:21:21;13.33;;;3.20;;
18544;SDS011;9402;51.460;7.276;2023-07-13T07:23:23;14.57;;;3.33;;
18544;SDS011;9402;51.460;7.276;2023-07-13T07:25:24;16.70;;;2.77;;
18544;SDS011;9402;51.460;7.276;2023-07-13T07:27:25;11.13;;;2.77;;
18544;SDS011;9402;51.460;7.276;2023-07-13T07:29:27;13.10;;;3.60;;
18544;SDS011;9402;51.460;7.276;2023-07-13T07:31:29;10.17;;;2.80;;
18544;SDS011;9402;51.460;7.276;2023-07-13T07:33:31;9.13;;;2.70;;
18544;SDS011;9402;51.460;7.276;2023-07-13T07:35:35;19.23;;;3.00;;
18544;SDS011;9402;51.460;7.276;2023-07-13T07:37:36;9.80;;;2.60;;
18544;SDS011;9402;51.460;7.276;2023-07-13T07:39:38;11.13;;;2.43;;
18544;SDS011;9402;51.460;7.276;2023-07-13T07:41:39;10.00;;;2.97;;
18544;SDS011;9402;51.460;7.276;2023-07-13T07:43:41;7.20;;;2.40;;
18544;SDS011;9402;51.460;7.276;2023-07-13T07:45:43;11.37;;;3.33;;
18544;SDS011;9402;51.460;7.276;2023-07-13T07:47:45;12.13;;;2.80;;
18544;SDS011;9402;51.460;7.276;2023-07-13T07:49:47;6.87;;;3.10;;
18544;SDS011;9402;51.460;7.276;2023-07-13T07:51:50;13.53;;;3.93;;
18544;SDS011;9402;51.460;7.276;2023-07-13T07:53:51;9.93;;;3.13;;
18544;SDS011;9402;51.460;7.276;2023-07-13T07:55:53;8.87;;;3.50;;
18544;SDS011;9402;51.460;7.276;2023-07-13T07:57:55;9.00;;;3.00;;
18544;SDS011;9402;51.460;7.276;2023-07-13T07:59:57;8.43;;;3.17;;
18544;SDS011;9402;51.460;7.276;2023-07-13T08:01:58;9.80;;;3.50;;
18544;SDS011;9402;51.460;7.276;2023-07-13T08:04:02;9.70;;;2.80;;
18544;SDS011;9402;51.460;7.276;2023-07-13T08:06:04;9.23;;;3.63;;
18544;SDS011;9402;51.460;7.276;2023-07-13T08:08:07;17.03;;;3.57;;
18544;SDS011;9402;51.460;7.276;2023-07-13T08:10:08;14.73;;;3.30;;
18544;SDS011;9402;51.460;7.276;2023-07-13T08:12:09;15.33;;;3.50;;
18544;SDS011;9402;51.460;7.276;2023-07-13T08:14:11;13.93;;;3.20;;
18544;SDS011;9402;51.460;7.276;2023-07-13T08:16:13;8.57;;;2.80;;
18544;SDS011;9402;51.460;7.276;2023-07-13T08:18:15;14.87;;;3.07;;
18544;SDS011;9402;51.460;7.276;2023-07-13T08:20:16;9.40;;;2.93;;
18544;SDS011;9402;51.460;7.276;2023-07-13T08:22:18;7.83;;;2.60;;
18544;SDS011;9402;51.460;7.276;2023-07-13T08:24:23;8.03;;;2.70;;
18544;SDS011;9402;51.460;7.276;2023-07-13T08:26:24;7.50;;;2.33;;
18544;SDS011;9402;51.460;7.276;2023-07-13T08:28:25;10.20;;;3.37;;
18544;SDS011;9402;51.460;7.276;2023-07-13T08:30:27;15.73;;;3.10;;
18544;SDS011;9402;51.460;7.276;2023-07-13T08:32:28;14.80;;;3.87;;
18544;SDS011;9402;51.460;7.276;2023-07-13T08:34:30;14.03;;;2.77;;
18544;SDS011;9402;51.460;7.276;2023-07-13T08:36:31;10.27;;;3.70;;
18544;SDS011;9402;51.460;7.276;2023-07-13T08:38:33;7.00;;;2.57;;
18544;SDS011;9402;51.460;7.276;2023-07-13T08:40:36;10.60;;;2.90;;
18544;SDS011;9402;51.460;7.276;2023-07-13T08:42:39;10.77;;;3.10;;
18544;SDS011;9402;51.460;7.276;2023-07-13T08:44:50;13.53;;;3.70;;
18544;SDS011;9402;51.460;7.276;2023-07-13T08:46:55;10.63;;;2.83;;
18544;SDS011;9402;51.460;7.276;2023-07-13T08:48:58;21.97;;;4.13;;
18544;SDS011;9402;51.460;7.276;2023-07-13T08:51:02;5.80;;;2.70;;
18544;SDS011;9402;51.460;7.276;2023-07-13T08:53:06;8.70;;;3.43;;
18544;SDS011;9402;51.460;7.276;2023-07-13T08:55:11;10.70;;;2.53;;
18544;SDS011;9402;51.460;7.276;2023-07-13T08:57:16;7.13;;;3.07;;
18544;SDS011;9402;51.460;7.276;2023-07-13T08:59:20;7.90;;;2.67;;
18544;SDS011;9402;51.460;7.276;2023-07-13T09:01:28;8.83;;;2.93;;
18544;SDS011;9402;51.460;7.276;2023-07-13T09:03:35;12.63;;;3.80;;
18544;SDS011;9402;51.460;7.276;2023-07-13T09:05:40;9.73;;;2.93;;
18544;SDS011;9402;51.460;7.276;2023-07-13T09:07:56;5.30;;;2.23;;
18544;SDS011;9402;51.460;7.276;2023-07-13T09:10:05;10.73;;;2.53;;
18544;SDS011;9402;51.460;7.276;2023-07-13T09:12:15;13.07;;;3.30;;
18544;SDS011;9402;51.460;7.276;2023-07-13T09:14:26;7.23;;;3.03;;
18544;SDS011;9402;51.460;7.276;2023-07-13T09:16:34;9.50;;;2.80;;
18544;SDS011;9402;51.460;7.276;2023-07-13T09:18:39;6.43;;;3.00;;
18544;SDS011;9402;51.460;7.276;2023-07-13T09:20:44;14.80;;;3.30;;
18544;SDS011;9402;51.460;7.276;2023-07-13T09:22:46;10.63;;;2.50;;
18544;SDS011;9402;51.460;7.276;2023-07-13T09:24:50;10.10;;;2.93;;
18544;SDS011;9402;51.460;7.276;2023-07-13T09:26:55;10.03;;;2.80;;
18544;SDS011;9402;51.460;7.276;2023-07-13T09:28:59;6.20;;;2.63;;
18544;SDS011;9402;51.460;7.276;2023-07-13T09:31:06;5.50;;;2.10;;
18544;SDS011;9402;51.460;7.276;2023-07-13T09:33:10;7.50;;;3.00;;
18544;SDS011;9402;51.460;7.276;2023-07-13T09:35:12;4.50;;;2.60;;
18544;SDS011;9402;51.460;7.276;2023-07-13T09:37:18;12.67;;;3.00;;
18544;SDS011;9402;51.460;7.276;2023-07-13T09:39:21;7.93;;;2.67;;
18544;SDS011;9402;51.460;7.276;2023-07-13T09:41:28;4.87;;;2.67;;
18544;SDS011;9402;51.460;7.276;2023-07-13T09:43:35;11.73;;;3.00;;
18544;SDS011;9402;51.460;7.276;2023-07-13T09:45:38;17.33;;;3.30;;
18544;SDS011;9402;51.460;7.276;2023-07-13T09:47:40;6.47;;;2.47;;
18544;SDS011;9402;51.460;7.276;2023-07-13T09:49:43;8.67;;;2.90;;
18544;SDS011;9402;51.460;7.276;2023-07-13T09:51:45;7.50;;;2.43;;
18544;SDS011;9402;51.460;7.276;2023-07-13T09:53:46;10.00;;;2.20;;
18544;SDS011;9402;51.460;7.276;2023-07-13T09:55:48;8.10;;;2.73;;
18544;SDS011;9402;51.460;7.276;2023-07-13T09:57:50;6.13;;;2.30;;
18544;SDS011;9402;51.460;7.276;2023-07-13T09:59:53;6.23;;;2.80;;
18544;SDS011;9402;51.460;7.276;2023-07-13T10:01:57;6.33;;;2.60;;
18544;SDS011;9402;51.460;7.276;2023-07-13T10:03:59;11.60;;;2.73;;
18544;SDS011;9402;51.460;7.276;2023-07-13T10:06:06;9.97;;;2.87;;
18544;SDS011;9402;51.460;7.276;2023-07-13T10:08:21;4.87;;;2.10;;
18544;SDS011;9402;51.460;7.276;2023-07-13T10:10:27;4.97;;;1.90;;
18544;SDS011;9402;51.460;7.276;2023-07-13T10:12:30;7.67;;;2.57;;
18544;SDS011;9402;51.460;7.276;2023-07-13T10:14:36;6.83;;;2.67;;
18544;SDS011;9402;51.460;7.276;2023-07-13T10:16:39;10.67;;;2.50;;
18544;SDS011;9402;51.460;7.276;2023-07-13T10:18:46;6.20;;;2.33;;
18544;SDS011;9402;51.460;7.276;2023-07-13T10:20:50;9.50;;;3.20;;
18544;SDS011;9402;51.460;7.276;2023-07-13T10:22:54;9.07;;;2.60;;
18544;SDS011;9402;51.460;7.276;2023-07-13T10:24:57;5.10;;;2.20;;
18544;SDS011;9402;51.460;7.276;2023-07-13T10:27:01;7.67;;;2.80;;
18544;SDS011;9402;51.460;7.276;2023-07-13T10:29:05;16.30;;;3.30;;
18544;SDS011;9402;51.460;7.276;2023-07-13T10:31:11;5.67;;;2.40;;
18544;SDS011;9402;51.460;7.276;2023-07-13T10:33:14;5.93;;;2.27;;
18544;SDS011;9402;51.460;7.276;2023-07-13T10:35:19;7.77;;;2.60;;
18544;SDS011;9402;51.460;7.276;2023-07-13T10:37:23;6.60;;;2.67;;
18544;SDS011;9402;51.460;7.276;2023-07-13T10:39:27;6.73;;;2.10;;
18544;SDS011;9402;51.460;7.276;2023-07-13T10:41:29;11.27;;;2.53;;
18544;SDS011;9402;51.460;7.276;2023-07-13T10:43:34;8.60;;;3.33;;
18544;SDS011;9402;51.460;7.276;2023-07-13T10:45:37;7.40;;;2.67;;
18544;SDS011;9402;51.460;7.276;2023-07-13T10:47:38;7.20;;;2.60;;
18544;SDS011;9402;51.460;7.276;2023-07-13T10:49:40;7.60;;;2.57;;
18544;SDS011;9402;51.460;7.276;2023-07-13T10:51:44;5.90;;;2.30;;
18544;SDS011;9402;51.460;7.276;2023-07-13T10:53:46;8.43;;;2.00;;
18544;SDS011;9402;51.460;7.276;2023-07-13T10:55:58;6.93;;;2.57;;
18544;SDS011;9402;51.460;7.276;2023-07-13T10:58:02;11.47;;;2.50;;
18544;SDS011;9402;51.460;7.276;2023-07-13T11:00:14;6.50;;;2.10;;
18544;SDS011;9402;51.460;7.276;2023-07-13T11:02:22;6.30;;;3.00;;
18544;SDS011;9402;51.460;7.276;2023-07-13T11:04:27;14.43;;;3.13;;
18544;SDS011;9402;51.460;7.276;2023-07-13T11:06:33;5.73;;;2.17;;
18544;SDS011;9402;51.460;7.276;2023-07-13T11:08:50;9.00;;;2.50;;
18544;SDS011;9402;51.460;7.276;2023-07-13T11:10:53;6.40;;;2.67;;
18544;SDS011;9402;51.460;7.276;2023-07-13T11:12:56;6.00;;;2.20;;
18544;SDS011;9402;51.460;7.276;2023-07-13T11:15:02;6.47;;;2.77;;
18544;SDS011;9402;51.460;7.276;2023-07-13T11:19:40;7.93;;;1.90;;
18544;SDS011;9402;51.460;7.276;2023-07-13T11:21:52;6.73;;;2.43;;
18544;SDS011;9402;51.460;7.276;2023-07-13T11:24:13;5.60;;;2.53;;
18544;SDS011;9402;51.460;7.276;2023-07-13T11:28:41;11.03;;;2.80;;
18544;SDS011;9402;51.460;7.276;2023-07-13T11:30:43;3.77;;;2.13;;
18544;SDS011;9402;51.460;7.276;2023-07-13T11:32:50;5.10;;;2.17;;
18544;SDS011;9402;51.460;7.276;2023-07-13T11:34:52;6.60;;;2.23;;
18544;SDS011;9402;51.460;7.276;2023-07-13T11:36:54;11.00;;;2.90;;
18544;SDS011;9402;51.460;7.276;2023-07-13T11:38:59;10.60;;;2.13;;
18544;SDS011;9402;51.460;7.276;2023-07-13T11:41:10;11.20;;;2.40;;
18544;SDS011;9402;51.460;7.276;2023-07-13T11:43:16;7.23;;;2.67;;
18544;SDS011;9402;51.460;7.276;2023-07-13T11:45:20;8.47;;;2.40;;
18544;SDS011;9402;51.460;7.276;2023-07-13T11:47:23;50.30;;;4.33;;
18544;SDS011;9402;51.460;7.276;2023-07-13T11:49:26;14.33;;;2.43;;
18544;SDS011;9402;51.460;7.276;2023-07-13T11:51:32;2.40;;;1.80;;
18544;SDS011;9402;51.460;7.276;2023-07-13T11:53:36;8.97;;;2.50;;
18544;SDS011;9402;51.460;7.276;2023-07-13T11:55:40;13.23;;;3.17;;
18544;SDS011;9402;51.460;7.276;2023-07-13T11:57:44;8.10;;;2.00;;
18544;SDS011;9402;51.460;7.276;2023-07-13T11:59:48;9.33;;;2.40;;
18544;SDS011;9402;51.460;7.276;2023-07-13T12:01:51;8.77;;;2.10;;
18544;SDS011;9402;51.460;7.276;2023-07-13T12:03:53;6.43;;;2.30;;
18544;SDS011;9402;51.460;7.276;2023-07-13T12:05:58;2.83;;;2.10;;
18544;SDS011;9402;51.460;7.276;2023-07-13T12:08:08;5.90;;;1.90;;
18544;SDS011;9402;51.460;7.276;2023-07-13T12:10:15;3.53;;;1.93;;
18544;SDS011;9402;51.460;7.276;2023-07-13T12:12:21;7.50;;;2.20;;
18544;SDS011;9402;51.460;7.276;2023-07-13T12:14:25;7.57;;;2.30;;
18544;SDS011;9402;51.460;7.276;2023-07-13T12:16:28;5.10;;;1.93;;
18544;SDS011;9402;51.460;7.276;2023-07-13T12:18:32;6.93;;;2.23;;
18544;SDS011;9402;51.460;7.276;2023-07-13T12:20:35;3.77;;;1.63;;
18544;SDS011;9402;51.460;7.276;2023-07-13T12:22:38;6.80;;;2.00;;
18544;SDS011;9402;51.460;7.276;2023-07-13T12:24:40;6.43;;;2.03;;
18544;SDS011;9402;51.460;7.276;2023-07-13T12:26:42;6.27;;;1.83;;
18544;SDS011;9402;51.460;7.276;2023-07-13T12:28:45;5.80;;;2.00;;
18544;SDS011;9402;51.460;7.276;2023-07-13T12:30:49;4.03;;;1.80;;
18544;SDS011;9402;51.460;7.276;2023-07-13T12:32:58;11.80;;;2.50;;
18544;SDS011;9402;51.460;7.276;2023-07-13T12:35:06;7.63;;;2.40;;
18544;SDS011;9402;51.460;7.276;2023-07-13T12:37:15;5.23;;;2.07;;